Washburn, ME (04786)

11:38 PM EDT on July 28, 2014 (GMT -0400)
Micmac Environmental (KMECARIB5) Elev 634 ft | 46.78 °N, 67.99 °W | Change Station

Current weather conditions updated 2 seconds ago

Overcast
Overcast
66.3 °F
Feels Like 66.3 °F
N
4.0
Wind Variable Wind from SE
Gusts 10.0 mph

Tomorrow is forecast to be nearly the same temperature as today. Morning showers.

Today
High -- | Low -- °F
--% Chance of Precip.
Yesterday
High -- | Low -- °F
Precip. -- in
5:07 AM 8:09 PM
Waxing Crescent, 4% visible
Pressure 29.51 in
Visibility 9.0 miles
Clouds Mostly Cloudy 500 ft
Overcast 1200 ft
Dew Point 65 °F
Humidity 97%
Rainfall 0.33 in
Snow Depth Not available.
UV 0.0 out of 12
Pollen .60 out of 12
Ozone Good
PM2.5 Good
Flu Activity Not available.
METAR KPQI 290335Z AUTO 15008KT 9SM BKN005 OVC012 19/17 A2951 RMK AO1

More Conditions Fewer Conditions

Pressure 29.51 in
Visibility 9.0 miles
Clouds Mostly Cloudy 500 ft
Overcast 1200 ft
Dew Point 65 °F
Humidity 97%
Rainfall 0.33 in
Snow Depth Not available.
UV 0.0 out of 12
Pollen .60 out of 12
Ozone Good
PM2.5 Good
Flu Activity Not available.
METAR KPQI 290335Z AUTO 15008KT 9SM BKN005 OVC012 19/17 A2951 RMK AO1

More Conditions Fewer Conditions

10-Day Weather Forecast

Almanac

Astronomy

Jul. 28, 2014 Rise Set
Actual Time 5:07 AM EDT 8:09 PM EDT
Civil Twilight 4:31 AM EDT 8:45 PM EDT
Nautical Twilight 3:45 AM EDT 9:31 PM EDT
Astronomical Twilight 2:49 AM EDT 10:26 PM EDT
Moon 6:55 AM EDT (7/28) 8:37 PM EDT (7/28)
Length of Visible Light 16h 13m
Length of Day
15h 01m
Tomorrow will be 2m 27s shorter.
Waxing Crescent, 4% of the Moon is Illuminated
Today
Waxing Crescent
Aug 3
First Quarter
Aug 10
Full
Aug 17
Last Quarter
Aug 25
New

Today's Extremes

State Highs State Lows

Community

WunderPhotos

Upload Photos

1,738,605 photos uploaded!

Nearby

Air Quality

  Air Quality AQ Index Pollutant
Yesterday Good
PM2.5
Yesterday Good
OZONE
Current Good
OZONE
Current Good
PM2.5
Monday Good
OZONE
Monday Good
PM2.5
Tuesday Good
OZONE
Tuesday Good
PM2.5
Wednesday Good
OZONE
Wednesday Good
PM2.5
Thursday Good
OZONE
Thursday Good
PM2.5
Friday Good
OZONE
Friday Good
PM2.5
Saturday Good
OZONE
Saturday Good
PM2.5

Snow Depth

Station Depth Elevation
No new snow has been reported.

Earthquake Activity

City Distance Mag. Time & Date
No recent earthquake activity has been reported nearby.
Minimum magnitude displayed is 2.5.

Coastal Water Temperatures

Place Temperature
No Stations Reporting

Nearby Weather Stations

Station Location Temp. Dew Point Humidity Wind Precip. Elev Updated Type
Micmac Environmental, Caribou, ME 66.3 °F 65 °F 97% SE  at  4.0 mph 0.00 in / hr 634 ft 11:38 PM EDT Rapid Fire
Micmac Environmental, Presque Isle, ME 66.6 °F 65 °F 96% SSE  at  9.0 mph 0.00 in / hr 540 ft 11:38 PM EDT Rapid Fire

Show More Stations Show Fewer Stations